createdAt,value
2022-08-03T06:01:25.477Z,100.00
2022-08-03T06:04:02.763Z,100.00
2022-08-03T06:06:39.617Z,100.00
2022-08-03T06:09:16.709Z,100.00
2022-08-03T06:11:53.538Z,100.00
2022-08-03T06:14:30.617Z,100.00
2022-08-03T06:17:09.922Z,100.00
2022-08-03T06:19:49.722Z,100.00
2022-08-03T06:22:28.783Z,100.00
2022-08-03T06:25:11.304Z,100.00
2022-08-03T06:27:49.893Z,100.00
2022-08-03T06:30:27.103Z,100.00
2022-08-03T06:33:08.283Z,100.00
2022-08-03T06:35:45.328Z,100.00
2022-08-03T06:38:22.239Z,100.00
2022-08-03T06:40:59.414Z,100.00
2022-08-03T06:44:02.575Z,100.00
2022-08-03T06:46:34.844Z,100.00
2022-08-03T06:49:14.253Z,100.00
2022-08-03T06:52:05.717Z,100.00
2022-08-03T06:54:43.441Z,100.00
2022-08-03T06:57:20.404Z,100.00
2022-08-03T07:00:10.870Z,100.00
2022-08-03T07:02:50.492Z,100.00
2022-08-03T07:05:33.826Z,100.00
2022-08-03T07:08:10.826Z,100.00
2022-08-03T07:10:48.704Z,97.04
2022-08-03T07:13:25.788Z,95.48
2022-08-03T07:16:02.599Z,91.02
2022-08-03T07:18:42.734Z,91.74
2022-08-03T07:21:22.179Z,92.97
2022-08-03T07:23:59.215Z,86.64
2022-08-03T07:26:36.037Z,87.87
2022-08-03T07:29:15.476Z,88.00
2022-08-03T07:31:52.502Z,84.87
2022-08-03T07:34:29.599Z,79.50
2022-08-03T07:37:09.178Z,77.56
2022-08-03T07:39:46.330Z,73.51
2022-08-03T07:42:24.167Z,74.43
2022-08-03T07:45:01.880Z,69.38
2022-08-03T07:47:38.847Z,68.35
2022-08-03T07:50:15.900Z,68.47
2022-08-03T07:52:56.456Z,67.65
2022-08-03T07:55:33.890Z,66.85
2022-08-03T07:58:12.723Z,67.60
2022-08-03T08:00:51.336Z,77.01
2022-08-03T08:03:28.070Z,84.29
2022-08-03T08:09:05.538Z,86.79
2022-08-03T08:11:42.618Z,88.03
2022-08-03T08:14:19.340Z,86.40
2022-08-03T08:16:56.420Z,87.51
2022-08-03T08:19:33.278Z,88.16
2022-08-03T08:22:15.590Z,85.50
2022-08-03T08:24:55.078Z,85.96
2022-08-03T08:28:31.806Z,88.80
2022-08-03T08:30:29.458Z,89.64
2022-08-03T08:33:12.849Z,88.68
2022-08-03T08:36:00.448Z,80.63
2022-08-03T08:38:42.360Z,73.96
2022-08-03T08:41:21.767Z,72.29
2022-08-03T08:44:00.179Z,71.29
2022-08-03T08:46:37.860Z,68.88
2022-08-03T08:49:16.541Z,69.82
2022-08-03T08:52:00.900Z,68.89
2022-08-03T08:54:41.408Z,69.25
2022-08-03T08:57:41.938Z,69.46
2022-08-03T09:00:20.809Z,68.47
2022-08-03T09:02:57.651Z,69.44
2022-08-03T09:05:55.093Z,69.35
2022-08-03T09:08:33.458Z,68.87
2022-08-03T09:11:12.007Z,70.70
2022-08-03T09:13:51.987Z,68.28
2022-08-03T09:16:29.088Z,70.15
2022-08-03T09:19:17.404Z,66.48
2022-08-03T09:22:16.032Z,66.96
2022-08-03T09:25:23.786Z,67.40
2022-08-03T09:28:07.243Z,65.66
2022-08-03T09:31:01.274Z,62.72
2022-08-03T09:33:51.544Z,60.28
2022-08-03T09:36:44.967Z,60.60
2022-08-03T09:39:40.797Z,60.16
2022-08-03T09:42:23.824Z,63.78
2022-08-03T09:45:01.163Z,59.79
2022-08-03T09:47:44.953Z,58.54
2022-08-03T09:50:22.233Z,59.69
2022-08-03T09:53:06.444Z,54.25
2022-08-03T09:56:35.217Z,54.67
2022-08-03T09:58:52.707Z,59.33
2022-08-03T10:01:37.705Z,59.14
2022-08-03T10:04:20.742Z,55.14
2022-08-03T10:07:09.813Z,53.20
2022-08-03T10:10:30.282Z,51.78
2022-08-03T10:12:56.845Z,52.61
2022-08-03T10:16:23.605Z,52.78
2022-08-03T10:18:31.324Z,51.76
2022-08-03T10:21:18.863Z,53.15
2022-08-03T10:23:58.294Z,52.61
2022-08-03T10:26:38.632Z,51.53
2022-08-03T10:29:31.433Z,51.61
2022-08-03T10:32:21.432Z,50.39
2022-08-03T10:35:19.523Z,48.87
2022-08-03T10:38:05.492Z,50.02
2022-08-03T10:40:49.442Z,50.23
2022-08-03T10:43:45.493Z,49.52
2022-08-03T10:46:24.601Z,50.42
2022-08-03T10:49:02.126Z,49.53
2022-08-03T10:51:39.643Z,48.48
2022-08-03T10:54:59.792Z,42.78
2022-08-03T10:57:58.379Z,44.70
2022-08-03T11:00:53.451Z,46.30
2022-08-03T11:03:30.643Z,46.31
2022-08-03T11:06:22.164Z,47.22
2022-08-03T11:09:19.965Z,48.86
2022-08-03T11:11:59.694Z,47.06
2022-08-03T11:14:50.601Z,46.32
2022-08-03T11:17:27.606Z,44.76
2022-08-03T11:20:05.885Z,46.44
2022-08-03T11:22:54.881Z,45.73
2022-08-03T11:25:53.401Z,40.71
2022-08-03T11:28:34.282Z,38.29
2022-08-03T11:31:50.160Z,38.33
2022-08-03T11:34:27.679Z,40.09
2022-08-03T11:37:31.502Z,39.64
2022-08-03T11:40:31.562Z,38.81
2022-08-03T11:43:10.281Z,37.46
2022-08-03T11:46:02.396Z,37.18
2022-08-03T11:48:43.522Z,38.11
2022-08-03T11:51:25.896Z,38.31
2022-08-03T11:54:05.347Z,36.33
2022-08-03T11:56:50.629Z,35.58
2022-08-03T11:59:38.761Z,36.90
2022-08-03T12:02:19.168Z,38.07
2022-08-03T12:05:01.075Z,37.78
2022-08-03T12:08:03.475Z,37.94
2022-08-03T12:10:35.328Z,37.98
2022-08-03T12:14:43.825Z,38.28
2022-08-03T12:16:10.084Z,38.68
2022-08-03T12:18:49.685Z,38.86
2022-08-03T12:21:27.367Z,38.76
2022-08-03T12:24:05.659Z,38.48
2022-08-03T12:26:57.232Z,38.98
2022-08-03T12:29:36.410Z,37.89
2022-08-03T12:32:18.119Z,34.23
2022-08-03T12:35:00.998Z,34.03
2022-08-03T12:37:39.182Z,34.03
2022-08-03T12:40:20.117Z,33.15
2022-08-03T12:42:59.308Z,33.07
2022-08-03T12:45:37.136Z,32.91
2022-08-03T12:48:16.003Z,31.29
2022-08-03T12:50:56.241Z,34.40
2022-08-03T12:53:33.961Z,33.07
2022-08-03T12:56:11.478Z,33.11
2022-08-03T12:58:48.535Z,32.04
2022-08-03T13:01:28.607Z,31.15
2022-08-03T13:04:06.447Z,31.75
2022-08-03T13:06:45.741Z,32.25
2022-08-03T13:09:23.390Z,31.77
2022-08-03T13:12:12.588Z,31.50
2022-08-03T13:14:52.228Z,31.75
2022-08-03T13:17:29.588Z,32.75
2022-08-03T13:20:07.592Z,31.57
2022-08-03T13:22:51.627Z,30.71
2022-08-03T13:25:29.298Z,29.45
2022-08-03T13:28:08.946Z,28.58
2022-08-03T13:30:50.868Z,27.49
2022-08-03T13:33:27.527Z,26.42
2022-08-03T13:36:04.569Z,25.55
2022-08-03T13:38:43.916Z,25.74
2022-08-03T13:41:22.599Z,25.17
2022-08-03T13:44:28.277Z,25.72
2022-08-03T13:47:05.336Z,25.95
2022-08-03T13:49:53.979Z,26.33
2022-08-03T13:52:39.030Z,25.99
2022-08-03T13:55:18.497Z,26.28
2022-08-03T13:58:05.986Z,26.75
2022-08-03T14:00:44.222Z,26.36
2022-08-03T14:03:21.710Z,26.37
2022-08-03T14:05:58.641Z,26.05
2022-08-03T14:08:35.800Z,26.72
2022-08-03T14:11:15.481Z,26.42
2022-08-03T14:13:52.732Z,26.22
2022-08-03T14:16:29.650Z,28.10
2022-08-03T14:19:06.890Z,27.79
2022-08-03T14:21:43.713Z,25.13
2022-08-03T14:24:29.820Z,25.71
2022-08-03T14:27:09.482Z,25.83
2022-08-03T14:29:46.758Z,25.68
2022-08-03T14:32:23.539Z,25.76
2022-08-03T14:35:00.679Z,26.38
2022-08-03T14:37:37.535Z,25.98
2022-08-03T14:40:14.922Z,25.11
2022-08-03T14:42:54.493Z,24.49
2022-08-03T14:45:31.729Z,25.04
2022-08-03T14:50:31.465Z,24.74
2022-08-03T14:51:08.815Z,24.64
2022-08-03T14:53:46.600Z,24.08
2022-08-03T14:56:23.699Z,24.37
2022-08-03T14:59:03.048Z,24.48
2022-08-03T15:02:05.976Z,24.72
2022-08-03T15:04:37.066Z,25.09
2022-08-03T15:07:14.567Z,25.24
2022-08-03T15:09:51.406Z,25.06
2022-08-03T15:12:28.944Z,25.70
2022-08-03T15:15:10.002Z,25.53
2022-08-03T15:18:00.457Z,26.07
2022-08-03T15:20:46.539Z,25.85
2022-08-03T15:23:24.431Z,25.53
2022-08-03T15:26:28.639Z,26.22
2022-08-03T15:28:58.582Z,26.25
2022-08-03T15:31:38.736Z,26.03
2022-08-03T15:34:16.034Z,25.78
2022-08-03T15:36:53.053Z,26.37
2022-08-03T15:39:30.292Z,26.50
2022-08-03T15:42:07.351Z,26.70
2022-08-03T15:44:44.673Z,27.21
2022-08-03T15:47:24.060Z,27.27
2022-08-03T15:50:01.134Z,27.44
2022-08-03T15:52:38.152Z,27.52
2022-08-03T15:55:17.274Z,27.83
2022-08-03T15:59:04.204Z,28.36
2022-08-03T16:00:51.125Z,28.32
2022-08-03T16:03:34.677Z,28.99
2022-08-03T16:06:13.906Z,28.75
2022-08-03T16:08:51.757Z,28.50
2022-08-03T16:11:29.047Z,29.09
2022-08-03T16:14:31.135Z,28.94
2022-08-03T16:17:03.068Z,29.29
2022-08-03T16:19:42.867Z,29.77
2022-08-03T16:22:22.151Z,29.81
2022-08-03T16:25:00.357Z,30.16
2022-08-03T16:28:06.837Z,29.91
2022-08-03T16:30:34.494Z,30.11
2022-08-03T16:33:17.504Z,30.35
2022-08-03T16:35:57.200Z,30.52
2022-08-03T16:38:34.287Z,30.48
2022-08-03T16:41:11.089Z,30.83
2022-08-03T16:43:48.160Z,30.99
2022-08-03T16:46:24.879Z,31.08
2022-08-03T16:49:01.928Z,31.74
2022-08-03T16:51:50.404Z,32.20
2022-08-03T16:54:28.131Z,34.64
2022-08-03T16:57:06.111Z,40.72
2022-08-03T16:59:45.710Z,42.78
2022-08-03T17:02:27.476Z,47.77
2022-08-03T17:05:04.851Z,52.00
2022-08-03T17:07:50.731Z,49.98
2022-08-03T17:10:33.323Z,54.32
2022-08-03T17:13:10.772Z,52.71
2022-08-03T17:15:58.078Z,55.82
2022-08-03T17:18:47.494Z,55.20
2022-08-03T17:21:32.305Z,57.58
2022-08-03T17:24:21.618Z,59.72
2022-08-03T17:28:42.420Z,58.64
2022-08-03T17:30:12.171Z,61.77
2022-08-03T17:32:57.412Z,61.35
2022-08-03T17:35:38.473Z,65.56
2022-08-03T17:38:22.430Z,65.23
2022-08-03T17:41:11.183Z,65.32
2022-08-03T17:44:15.738Z,68.23
2022-08-03T17:46:45.662Z,66.84
2022-08-03T17:49:25.108Z,65.95
2022-08-03T17:52:07.005Z,66.35
2022-08-03T17:55:57.653Z,69.05
2022-08-03T17:58:03.499Z,70.38
2022-08-03T18:00:56.293Z,70.90
2022-08-03T18:03:58.262Z,72.29
2022-08-03T18:06:55.681Z,72.90
2022-08-03T18:10:04.391Z,72.74
2022-08-03T18:12:51.739Z,73.56
2022-08-03T18:15:38.257Z,75.36
2022-08-03T18:18:29.325Z,74.48
2022-08-03T18:21:16.876Z,75.37
2022-08-03T18:23:55.487Z,75.41
2022-08-03T18:26:40.467Z,76.84
2022-08-03T18:29:26.066Z,77.22
2022-08-03T18:32:10.014Z,78.36
2022-08-03T18:34:54.578Z,80.19
2022-08-03T18:37:32.855Z,80.93
2022-08-03T18:40:29.635Z,83.40
2022-08-03T18:43:08.929Z,84.22
2022-08-03T18:45:55.737Z,85.77
2022-08-03T18:48:47.011Z,87.38
2022-08-03T18:51:33.899Z,90.92
2022-08-03T18:54:51.798Z,90.68
2022-08-03T18:57:34.907Z,94.66
2022-08-03T19:00:24.965Z,96.17
2022-08-03T19:03:20.535Z,98.05
2022-08-03T19:09:09.680Z,98.38
2022-08-03T19:12:12.468Z,96.96
2022-08-03T19:14:57.159Z,99.70
2022-08-03T19:17:38.487Z,100.00
2022-08-03T19:20:16.318Z,100.00
2022-08-03T21:13:01.363Z,98.83
